Time;durP1;ratioP1;P1;durP2;ratioP2;P2;SDS_P1;SDS_P2;PMS_P1;PMS_P2;Temp;Humidity;BMP_temperature;BMP_pressure;BME280_temperature;BME280_humidity;BME280_pressure;Samples;Min_cycle;Max_cycle;Signal;HPM_P1;HPM_P2
2022/08/06 00:02:41;;;;;;;2.83;2.72;;;16.80;99.90;;;16.91;71.43;102491.84;5053046;28;20045;-68
2022/08/06 00:05:11;;;;;;;3.00;2.90;;;16.70;99.90;;;16.87;71.51;102462.44;5052872;28;20397;-68
2022/08/06 00:07:56;;;;;;;2.85;2.75;;;16.70;99.90;;;17.10;71.27;102497.97;5052847;28;20041;-68
2022/08/06 00:10:26;;;;;;;2.70;2.60;;;16.80;99.90;;;17.06;70.84;102491.75;5052934;28;20124;-68
2022/08/06 00:12:57;;;;;;;2.75;2.65;;;16.80;99.90;;;17.11;71.33;102495.28;5052874;28;20498;-68
2022/08/06 00:15:28;;;;;;;3.10;3.00;;;16.80;99.90;;;17.19;72.03;102502.41;5052856;28;20049;-68
2022/08/06 00:18:16;;;;;;;2.85;2.75;;;16.90;99.90;;;17.13;72.44;102488.16;5052482;28;20472;-67
2022/08/06 00:20:45;;;;;;;2.88;2.78;;;16.90;99.90;;;17.10;72.07;102500.66;5052725;28;20041;-67
2022/08/06 00:23:19;;;;;;;3.28;3.17;;;16.80;99.90;;;17.03;72.52;102502.47;5068300;28;20057;-68
2022/08/06 00:25:52;;;;;;;2.88;2.78;;;16.80;99.90;;;16.95;72.88;102504.31;5052609;28;20041;-67
2022/08/06 00:28:22;;;;;;;2.90;2.80;;;16.70;99.90;;;16.93;72.78;102481.13;5052578;28;20585;-68
2022/08/06 00:31:01;;;;;;;3.03;2.92;;;16.70;99.90;;;17.13;72.13;102514.91;5052907;28;20383;-68
2022/08/06 00:33:38;;;;;;;2.70;2.60;;;16.90;99.90;;;17.09;71.77;102512.25;5052631;28;20045;-68
2022/08/06 00:36:24;;;;;;;2.53;2.42;;;17.00;99.90;;;17.32;71.49;102521.06;5052576;28;20098;-68
2022/08/06 00:39:00;;;;;;;3.17;3.08;;;17.00;99.90;;;17.33;71.79;102519.25;5052548;28;20410;-67
2022/08/06 00:41:36;;;;;;;2.50;2.40;;;17.10;99.90;;;17.22;72.50;102529.13;5052754;28;20060;-68
2022/08/06 00:44:14;;;;;;;3.08;2.97;;;17.00;99.90;;;17.16;73.21;102530.03;5052511;28;20056;-68
2022/08/06 00:46:58;;;;;;;2.80;2.70;;;16.90;99.90;;;17.11;73.83;102526.50;5052470;28;20418;-68
2022/08/06 00:49:27;;;;;;;2.97;2.88;;;16.80;99.90;;;17.04;74.59;102522.97;5052285;28;20036;-67
2022/08/06 00:52:15;;;;;;;2.92;2.83;;;16.80;99.90;;;17.11;74.65;102531.88;5052380;28;20211;-68
2022/08/06 00:54:48;;;;;;;4.00;3.80;;;16.70;99.90;;;17.17;74.58;102520.25;5068034;28;20091;-68
2022/08/06 00:57:17;;;;;;;3.13;3.03;;;16.80;99.90;;;16.66;74.98;102438.50;5052335;28;20090;-67
2022/08/06 00:59:50;;;;;;;3.25;3.15;;;16.80;99.90;;;17.24;75.19;102527.31;5052358;28;20057;-67
2022/08/06 01:02:19;;;;;;;2.90;2.80;;;16.90;99.90;;;17.15;74.18;102523.78;5052222;28;20118;-67
2022/08/06 01:04:50;;;;;;;3.30;3.20;;;16.90;99.90;;;17.17;73.20;102530.03;5052339;28;20045;-68
2022/08/06 01:07:28;;;;;;;3.13;3.03;;;16.80;99.90;;;17.25;73.11;102530.00;5052310;28;20057;-68
2022/08/06 01:10:17;;;;;;;3.05;2.95;;;16.90;99.90;;;17.23;73.95;102530.91;5050960;28;20132;-68
2022/08/06 01:12:46;;;;;;;2.88;2.78;;;16.90;99.90;;;17.16;74.06;102532.72;5051345;28;20476;-68
2022/08/06 01:15:14;;;;;;;2.88;2.78;;;16.90;99.90;;;17.21;73.92;102538.06;5052061;28;20099;-68
2022/08/06 01:17:54;;;;;;;3.00;2.90;;;16.90;99.90;;;17.09;74.02;102522.97;5050891;28;20056;-68
2022/08/06 01:20:43;;;;;;;2.95;2.85;;;16.90;99.90;;;16.99;73.50;102538.13;5052112;28;20083;-68
2022/08/06 01:23:49;;;;;;;3.45;3.35;;;16.70;99.90;;;16.87;72.63;102551.56;5052444;28;20123;-67
2022/08/06 01:26:37;;;;;;;2.70;2.60;;;16.60;99.90;;;16.91;73.64;102542.63;5051992;28;20045;-68
2022/08/06 01:29:13;;;;;;;3.25;3.15;;;16.60;99.90;;;16.82;74.12;102548.00;5051977;28;20095;-68
2022/08/06 01:31:48;;;;;;;2.67;2.58;;;16.50;99.90;;;16.89;75.03;102547.09;5055779;28;20409;-68
2022/08/06 01:34:23;;;;;;;2.92;2.83;;;16.50;99.90;;;16.95;75.23;102539.06;5055843;28;20549;-68
2022/08/06 01:37:06;;;;;;;2.80;2.70;;;16.60;99.90;;;16.88;75.84;102537.28;5055705;28;20053;-68
2022/08/06 01:39:36;;;;;;;3.15;3.05;;;16.50;99.90;;;16.69;76.43;102510.63;5070935;28;20052;-68
2022/08/06 01:42:26;;;;;;;;;;;16.50;99.90;;;16.86;77.14;102541.75;5056011;28;20068;-68
2022/08/06 01:45:09;;;;;;;3.10;3.00;;;16.50;99.90;;;16.68;77.33;102515.09;5055622;28;20281;-68
2022/08/06 01:47:41;;;;;;;2.80;2.70;;;16.50;99.90;;;16.62;77.00;102535.59;5055849;28;20045;-68
2022/08/06 01:50:29;;;;;;;2.95;2.85;;;16.40;99.90;;;16.73;77.10;102544.47;5055875;28;20094;-68
2022/08/06 01:53:01;;;;;;;3.08;2.97;;;16.30;99.90;;;16.31;76.04;102537.41;5055410;28;20410;-68
2022/08/06 01:55:34;;;;;;;2.90;2.80;;;16.10;99.90;;;16.48;76.32;102532.94;5055398;28;20120;-68
2022/08/06 01:58:29;;;;;;;2.70;2.60;;;16.20;99.90;;;16.35;75.57;102541.84;5055488;28;20068;-67
2022/08/06 02:01:04;;;;;;;2.90;2.80;;;16.10;99.90;;;16.15;75.75;102536.53;5055323;28;20065;-67
2022/08/06 02:03:37;;;;;;;2.80;2.70;;;15.90;99.90;;;15.81;76.04;102515.19;5055297;28;20131;-67
2022/08/06 02:06:26;;;;;;;2.95;2.85;;;15.70;99.90;;;15.98;76.31;102542.75;5055046;28;20048;-67
2022/08/06 02:09:00;;;;;;;3.20;3.10;;;15.60;99.90;;;15.86;76.86;102534.72;5055091;28;20083;-68
2022/08/06 02:12:00;;;;;;;2.80;2.70;;;15.60;99.90;;;15.84;77.20;102540.06;5055141;28;20383;-68
2022/08/06 02:14:38;;;;;;;2.97;2.88;;;15.50;99.90;;;15.77;77.58;102529.41;5054970;28;20041;-67
2022/08/06 02:17:14;;;;;;;2.97;2.88;;;15.40;99.90;;;15.91;78.55;102543.66;5054830;28;20051;-67
2022/08/06 02:19:49;;;;;;;2.70;2.60;;;15.40;99.90;;;15.99;78.15;102541.84;5054943;28;20041;-67
2022/08/06 02:22:29;;;;;;;3.03;2.92;;;15.60;99.90;;;15.94;77.37;102544.53;5055259;28;20049;-67
2022/08/06 02:25:05;;;;;;;2.92;2.83;;;15.60;99.90;;;15.96;77.18;102542.75;5054895;28;20053;-67
2022/08/06 02:27:59;;;;;;;2.63;2.53;;;15.60;99.90;;;15.98;76.60;102540.97;5054941;28;20045;-67
2022/08/06 02:30:34;;;;;;;2.63;2.53;;;15.70;99.90;;;16.00;76.16;102538.31;5054754;28;20498;-67
2022/08/06 02:33:07;;;;;;;2.70;2.60;;;15.70;99.90;;;15.85;76.03;102511.63;5054612;28;20052;-67
2022/08/06 02:35:43;;;;;;;2.90;2.80;;;15.70;99.90;;;16.04;76.16;102534.75;5054600;28;20045;-67
2022/08/06 02:38:20;;;;;;;3.05;2.95;;;15.70;99.90;;;16.12;76.03;102536.50;5054482;28;20048;-67
2022/08/06 02:41:00;;;;;;;2.97;2.88;;;15.80;99.90;;;16.05;75.97;102542.75;5054806;28;20044;-68
2022/08/06 02:43:36;;;;;;;2.78;2.67;;;15.80;99.90;;;16.08;75.71;102547.22;5054461;28;20059;-68
2022/08/06 02:46:13;;;;;;;2.80;2.70;;;15.90;99.90;;;16.09;75.47;102560.56;5054160;28;20068;-67
2022/08/06 02:48:50;;;;;;;2.80;2.70;;;15.80;99.90;;;16.09;74.46;102556.97;5054531;28;20045;-67
2022/08/06 02:51:27;;;;;;;3.30;3.20;;;15.90;99.90;;;16.12;74.11;102563.22;5054429;28;20110;-67
2022/08/06 02:54:21;;;;;;;2.80;2.70;;;15.90;99.90;;;16.16;74.62;102572.13;5054306;28;20406;-68
2022/08/06 02:56:56;;;;;;;2.78;2.67;;;15.90;99.90;;;16.21;74.62;102559.66;5054414;28;20049;-67
2022/08/06 02:59:29;;;;;;;3.00;2.90;;;16.00;99.90;;;16.19;74.87;102542.75;5053055;28;20130;-68
2022/08/06 03:02:11;;;;;;;2.88;2.78;;;16.00;99.90;;;16.27;74.39;102557.88;5054100;28;20555;-68
2022/08/06 03:04:48;;;;;;;2.95;2.85;;;16.00;99.90;;;16.15;74.55;102565.00;5054137;28;20394;-68
2022/08/06 03:07:28;;;;;;;3.05;2.95;;;15.90;99.90;;;16.18;74.96;102565.88;5053965;28;20040;-68
2022/08/06 03:10:01;;;;;;;2.80;2.70;;;15.90;99.90;;;16.07;74.72;102562.34;5053920;28;20047;-67
2022/08/06 03:12:30;;;;;;;3.50;3.40;;;15.80;99.90;;;16.01;74.92;102566.75;5053908;28;20069;-67
2022/08/06 03:15:01;;;;;;;2.78;2.67;;;15.70;99.90;;;16.15;75.26;102557.00;5053784;28;20557;-67
2022/08/06 03:17:39;;;;;;;2.70;2.60;;;15.80;99.90;;;16.18;76.23;102557.00;5053802;28;20178;-67
2022/08/06 03:20:11;;;;;;;2.80;2.70;;;15.80;99.90;;;16.19;76.56;102556.09;5053906;28;20123;-67
2022/08/06 03:22:49;;;;;;;2.65;2.55;;;15.80;99.90;;;16.12;76.58;102546.31;5069162;28;20053;-67
2022/08/06 03:25:20;;;;;;;3.30;3.20;;;15.90;99.90;;;16.23;77.05;102563.22;5053718;28;20449;-67
2022/08/06 03:27:52;;;;;;;2.80;2.70;;;15.90;99.90;;;16.09;76.89;102554.31;5053525;28;20049;-67
2022/08/06 03:30:31;;;;;;;3.33;3.22;;;15.90;99.90;;;15.98;75.36;102558.78;5053538;28;20047;-67
2022/08/06 03:33:05;;;;;;;2.70;2.60;;;15.80;99.90;;;16.00;74.77;102570.34;5053970;28;20040;-67
2022/08/06 03:35:57;;;;;;;3.10;3.00;;;15.70;99.90;;;16.05;74.91;102568.56;5053532;28;20044;-67
2022/08/06 03:38:33;;;;;;;3.00;2.90;;;15.80;99.90;;;16.21;74.77;102575.69;5053380;28;20560;-67
2022/08/06 03:41:05;;;;;;;3.10;3.00;;;15.90;99.90;;;16.17;74.66;102573.91;5053354;28;20052;-67
2022/08/06 03:43:35;;;;;;;2.75;2.65;;;16.00;99.90;;;16.19;74.48;102583.69;5053339;28;20102;-67
2022/08/06 03:46:28;;;;;;;2.88;2.78;;;15.90;99.90;;;16.23;75.23;102581.91;5051936;28;20493;-67
2022/08/06 03:49:03;;;;;;;2.70;2.60;;;15.90;99.90;;;16.14;76.08;102582.78;5053386;28;20073;-67
2022/08/06 03:51:37;;;;;;;3.20;3.10;;;15.90;99.90;;;16.07;76.59;102567.66;5053141;28;20053;-67
2022/08/06 03:54:27;;;;;;;2.78;2.67;;;15.80;99.90;;;16.13;76.55;102567.69;5052957;28;20094;-67
2022/08/06 03:57:04;;;;;;;3.33;3.22;;;15.80;99.90;;;16.05;76.98;102549.88;5053040;28;20045;-68
2022/08/06 03:59:40;;;;;;;3.00;2.90;;;15.80;99.90;;;16.31;76.82;102582.81;5053312;28;20103;-68
2022/08/06 04:02:30;;;;;;;3.03;2.92;;;15.90;99.90;;;16.40;77.11;102579.22;5052954;28;20045;-67
2022/08/06 04:05:18;;;;;;;2.88;2.78;;;16.00;99.90;;;16.39;77.25;102582.78;5052942;28;20067;-67
2022/08/06 04:07:55;;;;;;;2.88;2.78;;;16.10;99.90;;;16.39;77.71;102574.78;5052961;28;20052;-67
2022/08/06 04:10:27;;;;;;;2.90;2.80;;;16.10;99.90;;;16.32;76.98;102599.72;5052799;28;20051;-68
2022/08/06 04:13:11;;;;;;;2.90;2.80;;;16.10;99.90;;;16.27;76.34;102560.56;5052791;28;20103;-68
2022/08/06 04:16:00;;;;;;;3.42;3.33;;;16.10;99.90;;;16.43;76.04;102582.81;5068338;28;20047;-68
2022/08/06 04:18:34;;;;;;;3.22;3.13;;;16.10;99.90;;;16.33;76.91;102569.44;5053167;28;20085;-68
2022/08/06 04:21:25;;;;;;;2.70;2.60;;;16.10;99.90;;;16.44;77.23;102584.56;5052595;28;20048;-67
2022/08/06 04:24:15;;;;;;;2.90;2.80;;;16.10;99.90;;;16.42;77.62;102588.13;5052510;28;20076;-67
2022/08/06 04:26:45;;;;;;;3.17;3.08;;;16.10;99.90;;;16.29;77.43;102589.94;5052733;28;20098;-68
2022/08/06 04:29:19;;;;;;;2.83;2.72;;;16.00;99.90;;;16.06;76.77;102551.66;5052677;28;20041;-67
2022/08/06 04:31:50;;;;;;;3.10;3.00;;;16.00;99.90;;;16.42;75.93;102602.38;5052589;28;20045;-68
2022/08/06 04:34:41;;;;;;;2.95;2.85;;;16.00;99.90;;;16.38;75.64;102594.34;5052487;28;20041;-67
2022/08/06 04:37:30;;;;;;;2.97;2.88;;;16.00;99.90;;;16.49;75.42;102596.16;5052456;28;20123;-68
2022/08/06 04:40:11;;;;;;;3.22;3.13;;;16.10;99.90;;;16.42;75.71;102581.00;5068044;28;20084;-68
2022/08/06 04:42:47;;;;;;;2.95;2.85;;;16.10;99.90;;;16.54;74.50;102599.75;5052245;28;20064;-68
2022/08/06 04:45:19;;;;;;;2.80;2.70;;;16.20;99.90;;;16.45;74.61;102590.81;5052376;28;20083;-67
2022/08/06 04:48:11;;;;;;;2.65;2.55;;;16.10;99.90;;;16.44;75.29;102597.94;5067927;28;20490;-67
2022/08/06 04:50:48;;;;;;;2.85;2.75;;;16.10;99.90;;;16.32;74.78;102597.91;5052294;28;20533;-67
2022/08/06 04:53:22;;;;;;;3.30;3.20;;;16.10;99.90;;;16.39;74.96;102607.75;5052320;28;20402;-68
2022/08/06 04:56:12;;;;;;;3.22;3.13;;;16.10;99.90;;;15.79;74.39;102506.28;5052293;28;20486;-67
2022/08/06 04:58:42;;;;;;;2.92;2.83;;;16.10;99.90;;;16.37;74.83;102620.19;5052356;28;20045;-68
2022/08/06 05:01:11;;;;;;;2.70;2.60;;;16.10;99.90;;;16.47;75.41;102613.97;5052352;28;20044;-67
2022/08/06 05:03:40;;;;;;;2.88;2.78;;;16.10;99.90;;;16.50;75.94;102615.75;5050941;28;20082;-68
2022/08/06 05:06:39;;;;;;;2.70;2.60;;;16.20;99.90;;;16.44;76.34;102613.97;5056210;28;20092;-68
2022/08/06 05:09:21;;;;;;;3.28;3.17;;;16.20;99.90;;;16.55;76.33;102622.88;5056326;28;20049;-67
2022/08/06 05:12:20;;;;;;;2.60;2.50;;;16.20;99.90;;;16.65;76.40;102615.75;5054839;28;20045;-67
2022/08/06 05:14:55;;;;;;;2.72;2.63;;;16.30;99.90;;;16.65;75.98;102623.75;5056195;28;20102;-67
2022/08/06 05:17:34;;;;;;;2.70;2.60;;;16.30;99.90;;;16.69;75.87;102622.84;5056248;28;20465;-67
2022/08/06 05:20:12;;;;;;;3.33;3.22;;;16.40;99.90;;;16.76;75.92;102617.50;5056161;28;20059;-67
2022/08/06 05:23:00;;;;;;;3.15;3.05;;;16.50;99.90;;;16.87;76.96;102633.53;5055969;28;20110;-67
2022/08/06 05:25:37;;;;;;;3.00;2.90;;;16.50;99.90;;;16.95;77.49;102634.41;5056153;28;20413;-69
2022/08/06 05:28:16;;;;;;;2.55;2.45;;;16.60;99.90;;;17.11;77.03;102634.34;5055975;28;20037;-68
2022/08/06 05:30:53;;;;;;;2.90;2.80;;;16.80;99.90;;;17.24;76.53;102647.69;5056205;28;20103;-68
2022/08/06 05:33:27;;;;;;;3.13;3.03;;;16.90;99.90;;;17.25;75.27;102652.16;5056025;28;20041;-68
2022/08/06 05:35:58;;;;;;;3.38;3.28;;;16.90;99.90;;;17.41;75.89;102653.88;5054684;28;20044;-68
2022/08/06 05:38:30;;;;;;;3.00;2.90;;;17.10;99.90;;;17.53;76.87;102637.81;5055900;28;20049;-68
2022/08/06 05:41:05;;;;;;;2.85;2.75;;;17.20;99.90;;;17.70;76.88;102652.88;5055722;28;20075;-68
2022/08/06 05:43:37;;;;;;;2.70;2.60;;;17.30;99.90;;;17.58;76.70;102619.91;5055598;28;20110;-67
2022/08/06 05:46:29;;;;;;;2.88;2.78;;;17.50;99.90;;;17.96;76.58;102661.66;5055776;28;20051;-68
2022/08/06 05:49:06;;;;;;;2.80;2.70;;;17.60;99.90;;;18.13;76.07;102685.66;5055528;28;20040;-68
2022/08/06 05:52:05;;;;;;;3.25;3.15;;;17.80;99.90;;;18.28;75.32;102671.25;5055370;28;20037;-67
2022/08/06 05:54:40;;;;;;;2.90;2.80;;;18.00;99.90;;;18.32;74.12;102670.34;5055395;28;20063;-68
2022/08/06 05:57:23;;;;;;;2.83;2.72;;;18.10;99.90;;;18.49;74.12;102684.53;5055390;28;20045;-68
2022/08/06 06:00:09;;;;;;;2.85;2.75;;;18.20;99.90;;;18.64;73.42;102679.94;5055241;28;20550;-68
2022/08/06 06:02:58;;;;;;;3.20;3.10;;;18.40;99.90;;;18.93;73.07;102683.22;5055324;28;20072;-68
2022/08/06 06:05:30;;;;;;;2.65;2.55;;;18.60;99.90;;;18.96;72.85;102657.28;5055174;28;20502;-68
2022/08/06 06:08:19;;;;;;;2.70;2.60;;;18.80;99.90;;;19.44;73.53;102687.19;5055020;28;20167;-68
2022/08/06 06:11:09;;;;;;;2.83;2.72;;;19.10;99.90;;;19.62;72.55;102688.75;5055121;28;20103;-68
2022/08/06 06:13:42;;;;;;;2.63;2.53;;;19.30;99.90;;;19.71;71.94;102669.84;5054025;28;20517;-68
2022/08/06 06:16:36;;;;;;;2.88;2.78;;;19.50;99.90;;;19.98;71.99;102700.81;5054455;28;20045;-68
2022/08/06 06:19:16;;;;;;;2.53;2.42;;;19.60;99.90;;;20.18;71.29;102701.41;5055020;28;20490;-68
2022/08/06 06:21:56;;;;;;;2.60;2.50;;;19.80;99.90;;;20.25;70.76;102700.44;5054788;28;20120;-68
2022/08/06 06:24:31;;;;;;;2.60;2.50;;;19.90;99.90;;;20.37;70.34;102701.16;5055003;28;20111;-68
2022/08/06 06:27:06;;;;;;;2.35;2.25;;;20.00;99.90;;;20.42;69.38;102699.28;5054780;28;20053;-67
2022/08/06 06:30:03;;;;;;;2.22;2.13;;;20.10;99.90;;;20.62;69.29;102702.53;5055132;28;20124;-67
2022/08/06 06:32:50;;;;;;;2.47;2.38;;;20.30;99.90;;;20.81;69.08;102703.09;5054673;28;20087;-67
2022/08/06 06:35:30;;;;;;;2.50;2.40;;;20.50;99.90;;;20.90;68.53;102704.75;5054658;28;20501;-69
2022/08/06 06:38:35;;;;;;;3.05;2.95;;;20.70;99.90;;;20.85;67.94;102709.34;5054696;28;20047;-69
2022/08/06 06:41:19;;;;;;;2.38;2.28;;;20.70;99.90;;;20.91;68.51;102718.19;5054552;28;20075;-67
2022/08/06 06:44:13;;;;;;;2.88;2.78;;;20.60;99.90;;;20.65;67.51;102646.00;5069553;28;20073;-68
2022/08/06 06:46:52;;;;;;;2.50;2.40;;;20.70;99.90;;;21.19;66.64;102718.59;5054309;28;20037;-68
2022/08/06 06:49:34;;;;;;;2.88;2.78;;;20.90;99.90;;;21.39;65.83;102721.78;5054280;28;20086;-68
2022/08/06 06:52:27;;;;;;;2.55;2.45;;;21.10;99.90;;;21.43;64.16;102726.19;5054016;28;20051;-68
2022/08/06 06:55:06;;;;;;;2.70;2.60;;;21.20;99.90;;;21.47;63.40;102711.75;5054026;28;20406;-68
2022/08/06 06:57:52;;;;;;;3.63;3.42;;;21.30;99.90;;;21.77;63.01;102724.63;5053967;28;20402;-68
2022/08/06 07:00:22;;;;;;;2.35;2.25;;;21.50;99.90;;;21.52;61.15;102726.91;5054100;28;20041;-68
2022/08/06 07:03:13;;;;;;;2.78;2.67;;;21.30;99.90;;;21.57;59.97;102718.75;5054249;28;20131;-68
2022/08/06 07:05:47;;;;;;;2.78;2.67;;;21.30;99.90;;;21.17;59.41;102654.03;5053819;28;20110;-67
2022/08/06 07:08:40;;;;;;;2.60;2.50;;;21.30;99.90;;;21.62;59.06;102721.34;5053530;28;20041;-66
2022/08/06 07:11:10;;;;;;;2.88;2.78;;;21.30;99.90;;;21.84;59.45;102726.28;5053973;28;20056;-67
2022/08/06 07:13:50;;;;;;;2.60;2.50;;;21.50;99.90;;;21.95;58.28;102732.31;5054236;28;20068;-66
2022/08/06 07:16:22;;;;;;;2.60;2.50;;;21.70;99.90;;;22.14;57.94;102725.59;5053568;28;20068;-66
2022/08/06 07:19:07;;;;;;;2.72;2.63;;;21.90;99.90;;;22.20;57.43;102730.84;5053692;28;20059;-62
2022/08/06 07:21:41;;;;;;;2.53;2.42;;;22.00;99.90;;;22.40;57.34;102742.09;5053495;28;20072;-59
2022/08/06 07:24:23;;;;;;;2.75;2.65;;;22.10;99.90;;;22.16;54.52;102742.63;5053565;28;20055;-61
2022/08/06 07:27:10;;;;;;;2.80;2.70;;;22.00;99.90;;;22.07;55.91;102748.25;5052525;28;20033;-61
2022/08/06 07:30:00;;;;;;;2.57;2.47;;;21.80;99.90;;;22.35;56.27;102749.41;5051832;28;20131;-62
2022/08/06 07:32:30;;;;;;;2.17;2.08;;;22.00;99.90;;;22.53;55.55;102749.91;5053490;28;20067;-62
2022/08/06 07:35:02;;;;;;;2.60;2.50;;;22.20;99.90;;;22.51;53.72;102751.75;5053439;28;20041;-62
2022/08/06 07:37:45;;;;;;;2.50;2.40;;;22.20;99.90;;;22.51;53.18;102754.44;5053186;28;20072;-62
2022/08/06 07:40:23;;;;;;;2.47;2.38;;;22.30;99.90;;;22.58;52.73;102757.00;5053179;28;20098;-62
2022/08/06 07:43:03;;;;;;;2.40;2.30;;;22.40;99.90;;;22.45;51.77;102745.56;5053016;28;20525;-62
2022/08/06 07:45:53;;;;;;;2.67;2.58;;;22.30;99.90;;;22.55;51.89;102751.59;5053098;28;20110;-62
2022/08/06 07:48:38;;;;;;;2.60;2.50;;;22.40;99.90;;;22.43;52.53;102741.13;5052946;28;20037;-63
2022/08/06 07:51:07;;;;;;;2.28;2.17;;;22.20;99.90;;;22.33;52.52;102748.56;5053036;28;20033;-63
2022/08/06 07:53:39;;;;;;;2.70;2.60;;;22.10;99.90;;;22.25;52.89;102752.34;5052973;28;20045;-63
2022/08/06 07:56:26;;;;;;;2.60;2.50;;;22.00;99.90;;;22.21;53.19;102754.22;5053115;28;20080;-63
2022/08/06 07:58:58;;;;;;;2.63;2.53;;;22.00;99.90;;;22.10;52.87;102753.59;5052797;28;20469;-63
2022/08/06 08:01:27;;;;;;;;;;;21.80;99.90;;;22.10;53.33;102753.59;5053199;28;20121;-61
2022/08/06 08:07:06;;;;;;;2.65;2.55;;;21.70;99.90;;;21.89;52.00;102705.50;5068051;28;20045;-61
2022/08/06 08:09:44;;;;;;;2.88;2.78;;;21.90;99.90;;;22.40;51.87;102766.38;5052339;28;20059;-60
2022/08/06 08:12:32;;;;;;;2.75;2.65;;;22.10;99.90;;;22.51;50.87;102757.13;5052442;28;20512;-60
2022/08/06 08:15:07;;;;;;;2.28;2.17;;;22.30;99.90;;;22.24;50.37;102764.94;5052710;28;20052;-60
2022/08/06 08:17:49;;;;;;;2.35;2.25;;;22.10;99.90;;;22.27;51.13;102762.19;5052115;28;20037;-60
2022/08/06 08:20:28;;;;;;;2.53;2.42;;;22.00;99.90;;;22.24;50.96;102767.63;5052808;28;20080;-60
2022/08/06 08:23:03;;;;;;;2.60;2.50;;;22.00;99.90;;;22.35;51.83;102773.69;5052383;28;20140;-62
2022/08/06 08:25:34;;;;;;;;;;;22.10;99.90;;;22.40;51.65;102762.78;5068119;28;20138;-61
2022/08/06 08:28:12;;;;;;;2.33;2.22;;;22.20;99.90;;;22.64;50.43;102772.13;5052211;28;19950;-60
2022/08/06 08:30:46;;;;;;;2.28;2.17;;;22.40;99.90;;;22.86;50.53;102768.00;5052133;28;20045;-60
2022/08/06 08:33:18;;;;;;;2.83;2.72;;;22.60;99.90;;;23.08;50.26;102763.81;5052375;28;20045;-60
2022/08/06 08:35:48;;;;;;;2.17;2.08;;;22.80;99.90;;;23.29;49.40;102768.66;5052385;28;20037;-60
2022/08/06 08:38:29;;;;;;;2.25;2.15;;;23.10;99.90;;;23.48;48.12;102764.56;5052145;28;20075;-59
2022/08/06 08:41:02;;;;;;;2.57;2.47;;;23.30;99.90;;;23.23;48.00;102767.00;5052468;28;20055;-59
2022/08/06 08:43:38;;;;;;;2.20;2.10;;;23.20;99.90;;;23.32;48.82;102779.44;5050725;28;20469;-61
2022/08/06 08:46:28;;;;;;;2.50;2.40;;;23.20;99.90;;;23.23;48.87;102775.09;5052291;28;20067;-61
2022/08/06 08:49:04;;;;;;;2.90;2.78;;;23.10;99.90;;;22.99;49.46;102750.56;5067277;28;20099;-62
2022/08/06 08:51:40;;;;;;;2.83;2.72;;;22.90;99.90;;;23.21;47.77;102771.56;5052049;28;20059;-62
2022/08/06 08:54:16;;;;;;;2.22;2.13;;;22.90;99.90;;;23.43;47.75;102771.91;5052093;28;20045;-61
2022/08/06 08:56:50;;;;;;;2.50;2.40;;;23.20;99.90;;;23.68;46.93;102780.22;5052017;28;20120;-61
2022/08/06 08:59:40;;;;;;;2.47;2.38;;;23.50;99.90;;;23.86;46.59;102771.59;5051783;28;20053;-61
2022/08/06 09:02:28;;;;;;;2.38;2.28;;;23.70;99.90;;;24.22;47.10;102780.44;5051849;28;20487;-62
2022/08/06 09:04:59;;;;;;;2.30;2.20;;;24.00;99.90;;;24.18;43.10;102783.25;5067177;28;20077;-63
2022/08/06 09:07:31;;;;;;;2.20;2.10;;;24.10;99.90;;;24.27;44.31;102773.97;5051958;28;20085;-62
2022/08/06 09:10:06;;;;;;;2.35;2.25;;;24.10;99.90;;;24.33;40.75;102776.47;5066996;28;20049;-61
2022/08/06 09:12:41;;;;;;;2.28;2.17;;;24.20;99.90;;;24.29;44.07;102785.66;5052278;28;20055;-62
2022/08/06 09:15:16;;;;;;;2.17;2.08;;;24.10;99.90;;;24.45;43.95;102780.66;5051807;28;20048;-62
2022/08/06 09:17:47;;;;;;;2.45;2.35;;;24.20;99.90;;;24.71;44.69;102783.38;5051777;28;20045;-62
2022/08/06 09:20:37;;;;;;;1.95;1.85;;;24.50;99.90;;;24.97;43.16;102788.88;5051807;28;20077;-62
2022/08/06 09:23:15;;;;;;;2.08;1.98;;;24.80;99.90;;;24.74;42.92;102791.44;5051982;28;20047;-62
2022/08/06 09:25:48;;;;;;;2.30;2.20;;;24.60;99.90;;;24.98;44.07;102779.81;5051813;28;20449;-62
2022/08/06 09:28:35;;;;;;;2.10;2.00;;;24.70;99.90;;;25.17;42.53;102780.94;5051714;28;20041;-62
2022/08/06 09:31:07;;;;;;;1.67;1.67;;;25.00;99.90;;;25.14;41.56;102781.06;5066972;28;20049;-62
2022/08/06 09:33:42;;;;;;;2.30;2.20;;;25.00;99.90;;;25.32;42.10;102774.13;5051648;28;20037;-62
2022/08/06 09:36:43;;;;;;;2.05;1.95;;;25.10;99.90;;;25.41;42.53;102782.84;5052054;28;20111;-62
2022/08/06 09:39:13;;;;;;;1.83;1.75;;;25.30;99.90;;;25.71;43.08;102783.53;5051627;28;20048;-62
2022/08/06 09:41:52;;;;;;;2.00;1.90;;;25.50;99.90;;;25.84;40.58;102785.75;5051449;28;20049;-62
2022/08/06 09:44:22;;;;;;;;;;;25.70;99.90;;;25.84;41.16;102785.75;5051549;28;20123;-62
2022/08/06 09:47:06;;;;;;;2.65;2.55;;;25.70;99.90;;;24.85;40.80;102756.78;5050418;28;20328;-62
2022/08/06 09:49:46;;;;;;;1.95;1.85;;;24.90;99.90;;;24.36;42.18;102779.09;5051156;28;20065;-62
2022/08/06 09:52:28;;;;;;;2.30;2.20;;;24.10;99.90;;;24.96;43.24;102779.88;5053565;28;20053;-62
2022/08/06 09:54:56;;;;;;;1.95;1.85;;;24.60;99.90;;;25.31;42.56;102778.66;5053830;28;20060;-62
2022/08/06 09:57:42;;;;;;;2.30;2.20;;;25.00;99.90;;;25.64;42.23;102782.91;5055378;28;20060;-61
2022/08/06 10:00:27;;;;;;;2.15;2.05;;;25.30;99.90;;;26.01;41.45;102785.13;5055015;28;20102;-61
2022/08/06 10:02:58;;;;;;;2.10;2.00;;;25.80;99.90;;;25.96;40.72;102776.25;5054755;28;20049;-62
2022/08/06 10:05:46;;;;;;;2.30;2.20;;;25.80;99.90;;;25.78;40.05;102779.69;5053633;28;20507;-61
2022/08/06 10:08:17;;;;;;;2.03;1.92;;;25.70;99.90;;;25.48;40.99;102787.09;5054884;28;20080;-61
2022/08/06 10:10:52;;;;;;;2.30;2.20;;;25.30;99.90;;;25.07;40.81;102781.31;5054792;28;20484;-60
2022/08/06 10:13:24;;;;;;;2.28;2.17;;;24.90;99.90;;;25.03;41.23;102791.34;5055052;28;20126;-60
2022/08/06 10:15:57;;;;;;;2.33;2.22;;;24.70;99.90;;;25.08;39.93;102792.09;5055072;28;20041;-60
2022/08/06 10:18:48;;;;;;;2.30;2.20;;;24.80;99.90;;;25.26;40.90;102783.31;5054720;28;20490;-60
2022/08/06 10:21:28;;;;;;;1.85;1.80;;;25.00;99.90;;;25.41;40.88;102780.13;5070204;28;20068;-60
2022/08/06 10:24:11;;;;;;;2.00;1.90;;;25.30;99.90;;;25.35;40.30;102791.16;5054467;28;20044;-60
2022/08/06 10:26:41;;;;;;;;;;;25.20;99.90;;;24.71;40.38;102694.94;5054926;28;20041;-59
2022/08/06 10:29:12;;;;;;;2.40;2.30;;;25.10;99.90;;;25.53;39.51;102790.50;5054612;28;20028;-60
2022/08/06 10:31:45;;;;;;;2.30;2.20;;;25.30;99.90;;;25.55;39.04;102793.19;5054603;28;20040;-60
2022/08/06 10:34:27;;;;;;;2.25;2.15;;;25.40;99.90;;;25.78;40.41;102785.09;5054827;28;20048;-59
2022/08/06 10:37:07;;;;;;;2.15;2.05;;;25.50;99.90;;;26.07;39.23;102786.75;5053073;28;20049;-59
2022/08/06 10:40:00;;;;;;;2.22;2.13;;;25.80;99.90;;;26.17;38.56;102790.88;5054264;28;20131;-60
2022/08/06 10:42:39;;;;;;;2.05;1.95;;;26.00;99.90;;;25.73;39.37;102787.06;5053938;28;20075;-61
2022/08/06 10:45:11;;;;;;;1.95;1.85;;;25.60;99.90;;;25.96;39.42;102789.81;5053064;28;20063;-60
2022/08/06 10:47:47;;;;;;;2.10;2.00;;;25.70;99.90;;;25.63;39.67;102786.53;5054108;28;20041;-60
2022/08/06 10:50:36;;;;;;;1.55;1.55;;;25.50;99.90;;;25.65;39.72;102762.97;5054028;28;20043;-60
2022/08/06 10:53:22;;;;;;;2.33;2.22;;;25.60;99.90;;;25.98;39.23;102796.06;5054156;28;20045;-60
2022/08/06 10:56:13;;;;;;;2.25;2.15;;;25.70;99.90;;;25.41;38.90;102704.25;5053964;28;20425;-61
2022/08/06 10:58:49;;;;;;;2.00;1.90;;;25.80;99.90;;;25.80;39.41;102799.50;5054028;28;20049;-60
2022/08/06 11:01:27;;;;;;;1.80;1.80;;;25.60;99.90;;;25.86;39.61;102785.72;5053800;28;20056;-60
2022/08/06 11:04:31;;;;;;;1.70;1.70;;;25.70;99.90;;;26.00;39.61;102796.91;5053843;28;20043;-61
2022/08/06 11:07:29;;;;;;;2.28;2.17;;;25.80;99.90;;;26.33;38.96;102794.75;5054065;28;20379;-66